Time;durP1;ratioP1;P1;durP2;ratioP2;P2;SDS_P1;SDS_P2;PMS_P1;PMS_P2;Temp;Humidity;BMP_temperature;BMP_pressure;BME280_temperature;BME280_humidity;BME280_pressure;Samples;Min_cycle;Max_cycle;Signal;HPM_P1;HPM_P2
2021/05/10 00:02:03;;;;;;;8.98;6.07;;;17.20;92.00;;;;;;5055219;28;20037;-71
2021/05/10 00:04:30;;;;;;;11.70;6.55;;;17.20;92.20;;;;;;5055050;28;20140;-72
2021/05/10 00:06:57;;;;;;;6.47;5.63;;;17.20;92.00;;;;;;5055931;28;20037;-71
2021/05/10 00:09:23;;;;;;;9.57;6.22;;;17.30;92.00;;;;;;5055217;28;20065;-71
2021/05/10 00:11:50;;;;;;;7.18;5.55;;;17.20;92.20;;;;;;5055382;28;20065;-71
2021/05/10 00:14:26;;;;;;;7.07;5.80;;;17.20;92.30;;;;;;5054995;28;20041;-72
2021/05/10 00:16:52;;;;;;;7.50;5.97;;;17.20;92.50;;;;;;5055331;28;20063;-71
2021/05/10 00:19:23;;;;;;;8.88;6.25;;;17.10;92.70;;;;;;5055428;28;20033;-71
2021/05/10 00:21:50;;;;;;;10.25;7.13;;;17.10;92.90;;;;;;5053948;28;20033;-71
2021/05/10 00:24:15;;;;;;;12.05;7.72;;;17.10;92.70;;;;;;5037403;28;20048;-71
2021/05/10 00:26:41;;;;;;;14.73;7.38;;;17.10;92.70;;;;;;5054385;28;20405;-71
2021/05/10 00:29:07;;;;;;;11.82;8.02;;;17.10;92.60;;;;;;5055293;28;20041;-71
2021/05/10 00:31:37;;;;;;;11.05;7.70;;;17.10;92.50;;;;;;5055033;28;20055;-71
2021/05/10 00:34:03;;;;;;;8.27;7.38;;;17.10;92.50;;;;;;5054999;28;20037;-71
2021/05/10 00:36:30;;;;;;;10.25;7.55;;;17.10;92.60;;;;;;5036667;28;20469;-71
2021/05/10 00:38:55;;;;;;;9.13;7.10;;;17.00;92.50;;;;;;5054517;28;20037;-71
2021/05/10 00:41:21;;;;;;;8.98;7.35;;;17.00;92.60;;;;;;5054553;28;20036;-71
2021/05/10 00:43:47;;;;;;;9.80;7.28;;;16.90;93.00;;;;;;5054537;28;20045;-71
2021/05/10 00:46:12;;;;;;;13.63;8.75;;;16.90;93.10;;;;;;5054078;28;20044;-71
2021/05/10 00:48:38;;;;;;;13.20;9.45;;;16.90;93.10;;;;;;5054251;28;20047;-71
2021/05/10 00:51:06;;;;;;;11.50;9.07;;;16.80;93.10;;;;;;5054463;28;20039;-71
2021/05/10 00:53:32;;;;;;;11.30;8.05;;;16.80;93.20;;;;;;5054478;28;20041;-71
2021/05/10 00:55:59;;;;;;;13.32;9.32;;;16.70;93.30;;;;;;5053870;28;20469;-71
2021/05/10 00:58:24;;;;;;;11.68;9.63;;;16.70;93.30;;;;;;5054870;28;20201;-71
2021/05/10 01:00:50;;;;;;;13.18;10.73;;;16.80;93.40;;;;;;5054457;28;20446;-71
2021/05/10 01:03:16;;;;;;;13.35;11.23;;;16.80;93.40;;;;;;5054171;28;20036;-71
2021/05/10 01:05:44;;;;;;;15.15;11.73;;;16.80;93.30;;;;;;5053639;28;20040;-71
2021/05/10 01:08:10;;;;;;;12.23;10.85;;;16.80;93.40;;;;;;5054217;28;20045;-71
2021/05/10 01:10:36;;;;;;;15.85;11.85;;;16.80;93.50;;;;;;5054405;28;20432;-71
2021/05/10 01:13:02;;;;;;;15.95;12.48;;;16.70;93.60;;;;;;5054425;28;20033;-71
2021/05/10 01:15:30;;;;;;;17.20;12.73;;;16.70;93.80;;;;;;5053611;28;20041;-71
2021/05/10 01:18:04;;;;;;;16.63;13.30;;;16.60;93.80;;;;;;5053975;28;20425;-71
2021/05/10 01:20:33;;;;;;;15.32;12.32;;;16.70;93.80;;;;;;5053763;28;20064;-71
2021/05/10 01:22:58;;;;;;;16.60;13.02;;;16.60;93.80;;;;;;5053707;28;20075;-71
2021/05/10 01:25:29;;;;;;;19.20;13.18;;;16.60;94.20;;;;;;5053621;28;20068;-71
2021/05/10 01:27:57;;;;;;;16.58;12.60;;;16.60;93.90;;;;;;5054211;28;20045;-71
2021/05/10 01:30:35;;;;;;;16.23;13.55;;;16.60;93.90;;;;;;5054107;28;20112;-71
2021/05/10 01:33:03;;;;;;;15.00;13.45;;;16.60;94.00;;;;;;5053365;28;20041;-71
2021/05/10 01:35:34;;;;;;;14.00;12.43;;;16.60;94.00;;;;;;5053320;28;20385;-71
2021/05/10 01:38:04;;;;;;;15.63;12.98;;;16.50;94.00;;;;;;5054206;28;20037;-71
2021/05/10 01:40:30;;;;;;;17.10;13.25;;;16.60;94.00;;;;;;5053772;28;20394;-71
2021/05/10 01:42:57;;;;;;;21.30;14.25;;;16.50;94.20;;;;;;5053464;28;20040;-71
2021/05/10 01:45:22;;;;;;;17.55;14.15;;;16.40;94.50;;;;;;5053237;28;20068;-71
2021/05/10 01:47:58;;;;;;;16.08;13.90;;;16.30;94.70;;;;;;5053600;28;20136;-71
2021/05/10 01:50:35;;;;;;;;;;;16.20;94.80;;;;;;5053742;28;20064;-71
2021/05/10 01:53:03;;;;;;;15.40;12.75;;;16.10;94.90;;;;;;5053349;28;19951;-71
2021/05/10 01:55:29;;;;;;;15.32;13.27;;;16.10;95.00;;;;;;5053101;28;20045;-71
2021/05/10 01:57:57;;;;;;;18.25;14.68;;;16.10;95.00;;;;;;5053323;28;20045;-71
2021/05/10 02:00:35;;;;;;;19.10;14.45;;;16.10;95.00;;;;;;5053720;28;20033;-71
2021/05/10 02:03:06;;;;;;;17.95;14.88;;;16.10;95.10;;;;;;5053151;28;20048;-71
2021/05/10 02:05:33;;;;;;;21.17;15.10;;;16.10;95.50;;;;;;5052789;28;20033;-71
2021/05/10 02:08:01;;;;;;;17.00;13.77;;;16.10;95.20;;;;;;5052991;28;20087;-71
2021/05/10 02:10:32;;;;;;;16.48;14.60;;;16.10;95.10;;;;;;5053814;28;20091;-71
2021/05/10 02:12:59;;;;;;;19.88;15.40;;;16.20;95.10;;;;;;5053358;28;20037;-71
2021/05/10 02:15:30;;;;;;;19.15;14.13;;;16.20;95.00;;;;;;5052960;28;20485;-71
2021/05/10 02:17:56;;;;;;;19.40;14.00;;;16.20;94.90;;;;;;5052943;28;20059;-71
2021/05/10 02:20:25;;;;;;;20.30;14.93;;;16.20;94.90;;;;;;5052943;28;20094;-71
2021/05/10 02:22:52;;;;;;;22.70;14.73;;;16.20;94.90;;;;;;5035570;28;20037;-71
2021/05/10 02:25:20;;;;;;;21.58;15.25;;;16.20;95.00;;;;;;5052592;28;20086;-71
2021/05/10 02:27:46;;;;;;;20.55;15.27;;;16.10;95.00;;;;;;5052773;28;20374;-71
2021/05/10 02:30:13;;;;;;;21.25;14.27;;;16.10;95.00;;;;;;5053020;28;20048;-71
2021/05/10 02:32:39;;;;;;;19.83;14.30;;;16.10;95.10;;;;;;5053434;28;20048;-71
2021/05/10 02:35:13;;;;;;;19.10;14.25;;;16.10;95.10;;;;;;5052737;28;20086;-71
2021/05/10 02:37:38;;;;;;;22.48;14.60;;;16.10;95.20;;;;;;5052932;28;20120;-71
2021/05/10 02:40:05;;;;;;;15.63;13.35;;;16.10;95.20;;;;;;5053273;28;20369;-71
2021/05/10 02:42:32;;;;;;;18.25;14.63;;;16.10;95.20;;;;;;5053374;28;20136;-71
2021/05/10 02:44:57;;;;;;;17.48;14.18;;;16.10;95.20;;;;;;5053003;28;20119;-71
2021/05/10 02:47:23;;;;;;;20.30;14.27;;;16.00;95.20;;;;;;5056610;28;20044;-71
2021/05/10 02:49:49;;;;;;;17.95;14.68;;;16.10;95.20;;;;;;5056572;28;20037;-71
2021/05/10 02:52:14;;;;;;;17.95;13.68;;;16.10;95.30;;;;;;5056584;28;20041;-71
2021/05/10 02:54:40;;;;;;;17.73;14.85;;;16.10;95.20;;;;;;5056121;28;20041;-71
2021/05/10 02:57:06;;;;;;;17.10;14.75;;;16.10;95.20;;;;;;5056585;28;20045;-71
2021/05/10 02:59:32;;;;;;;16.67;14.85;;;16.10;95.20;;;;;;5056309;28;20557;-71
2021/05/10 03:01:58;;;;;;;18.55;14.38;;;16.10;95.30;;;;;;5038763;28;20392;-71
2021/05/10 03:04:23;;;;;;;18.23;14.25;;;16.00;95.40;;;;;;5056168;28;20036;-71
2021/05/10 03:06:49;;;;;;;19.73;14.52;;;16.10;95.40;;;;;;5056536;28;20064;-71
2021/05/10 03:09:15;;;;;;;20.40;15.43;;;16.10;95.40;;;;;;5056343;28;20091;-71
2021/05/10 03:11:41;;;;;;;18.40;15.13;;;16.10;95.30;;;;;;5056811;28;20055;-71
2021/05/10 03:14:07;;;;;;;16.38;14.45;;;16.10;95.20;;;;;;5056202;28;20124;-71
2021/05/10 03:16:33;;;;;;;17.52;14.60;;;16.10;95.20;;;;;;5055747;28;20077;-71
2021/05/10 03:18:58;;;;;;;17.55;14.32;;;16.10;95.30;;;;;;5056259;28;20036;-71
2021/05/10 03:21:24;;;;;;;22.05;15.40;;;16.10;95.30;;;;;;5056061;28;20033;-71
2021/05/10 03:23:50;;;;;;;22.02;15.48;;;16.10;95.30;;;;;;5055979;28;20037;-71
2021/05/10 03:26:15;;;;;;;20.35;15.68;;;16.10;95.30;;;;;;5055780;28;20111;-71
2021/05/10 03:28:41;;;;;;;19.42;13.88;;;16.10;95.30;;;;;;5055888;28;20040;-71
2021/05/10 03:31:07;;;;;;;18.17;14.95;;;16.10;95.30;;;;;;5055762;28;20036;-71
2021/05/10 03:33:32;;;;;;;22.52;16.08;;;16.10;95.20;;;;;;5055829;28;20483;-71
2021/05/10 03:35:58;;;;;;;18.40;15.82;;;16.10;95.30;;;;;;5055415;28;20457;-71
2021/05/10 03:38:24;;;;;;;19.15;15.68;;;16.10;95.30;;;;;;5055649;28;20058;-71
2021/05/10 03:40:51;;;;;;;18.23;14.98;;;16.10;95.30;;;;;;5038449;28;20040;-71
2021/05/10 03:43:16;;;;;;;19.10;15.85;;;16.10;95.40;;;;;;5055650;28;20037;-71
2021/05/10 03:45:42;;;;;;;21.02;16.27;;;16.10;95.20;;;;;;5037474;28;20044;-71
2021/05/10 03:48:08;;;;;;;20.63;16.23;;;16.10;95.30;;;;;;5055723;28;20029;-71
2021/05/10 03:50:33;;;;;;;22.25;15.88;;;16.00;95.50;;;;;;5055732;28;20039;-71
2021/05/10 03:52:59;;;;;;;17.23;15.20;;;16.10;95.50;;;;;;5056055;28;20116;-71
2021/05/10 03:55:25;;;;;;;18.75;16.75;;;16.10;95.30;;;;;;5055246;28;20041;-71
2021/05/10 03:57:53;;;;;;;19.88;15.48;;;16.20;95.20;;;;;;5055271;28;20045;-71
2021/05/10 04:00:19;;;;;;;17.95;14.10;;;16.30;95.00;;;;;;5055699;28;20041;-71
2021/05/10 04:02:46;;;;;;;16.83;14.27;;;16.30;95.00;;;;;;5055190;28;20087;-71
2021/05/10 04:15:46;;;;;;;18.40;15.65;;;16.40;95.00;;;;;;5054854;28;20041;-71
2021/05/10 04:18:14;;;;;;;18.15;16.02;;;16.40;95.10;;;;;;5054867;28;20109;-71
2021/05/10 04:20:40;;;;;;;21.10;15.45;;;16.40;95.20;;;;;;5055044;28;20481;-71
2021/05/10 04:23:05;;;;;;;21.08;15.25;;;16.40;95.20;;;;;;5055045;28;20043;-71
2021/05/10 04:25:31;;;;;;;15.70;12.57;;;16.30;95.30;;;;;;5054611;28;20037;-71
2021/05/10 04:27:57;;;;;;;16.25;12.57;;;16.60;94.40;;;;;;5054650;28;20033;-71
2021/05/10 04:30:23;;;;;;;19.08;13.00;;;16.60;93.90;;;;;;5054848;28;20037;-71
2021/05/10 04:32:49;;;;;;;16.13;12.93;;;16.80;93.40;;;;;;5054858;28;20475;-71
2021/05/10 04:35:15;;;;;;;19.02;13.15;;;16.80;93.70;;;;;;5054178;28;20128;-71
2021/05/10 04:37:42;;;;;;;15.00;12.55;;;16.70;93.70;;;;;;5054612;28;20362;-71
2021/05/10 04:40:10;;;;;;;20.35;13.02;;;16.70;93.80;;;;;;5054670;28;20098;-71
2021/05/10 04:42:36;;;;;;;17.27;12.23;;;16.70;93.80;;;;;;5054499;28;20477;-71
2021/05/10 04:45:03;;;;;;;16.00;12.15;;;16.70;93.90;;;;;;5054002;28;20040;-71
2021/05/10 04:47:36;;;;;;;16.75;12.00;;;16.70;93.90;;;;;;5054461;28;20065;-71
2021/05/10 04:50:06;;;;;;;;;;;16.70;93.80;;;;;;5054597;28;20091;-71
2021/05/10 04:52:31;;;;;;;17.70;11.98;;;16.70;93.70;;;;;;5054252;28;20396;-71
2021/05/10 04:54:57;;;;;;;16.60;11.55;;;16.70;93.70;;;;;;5054093;28;20037;-71
2021/05/10 04:57:23;;;;;;;16.40;11.43;;;16.70;93.60;;;;;;5054325;28;20117;-71
2021/05/10 04:59:49;;;;;;;18.30;11.00;;;16.70;93.40;;;;;;5054734;28;20037;-71
2021/05/10 05:02:15;;;;;;;14.25;11.35;;;16.80;93.20;;;;;;5054602;28;20055;-71
2021/05/10 05:04:40;;;;;;;12.93;11.18;;;16.90;93.20;;;;;;5054534;28;20041;-71
2021/05/10 05:07:06;;;;;;;12.82;11.10;;;16.90;93.20;;;;;;5053921;28;20037;-71
2021/05/10 05:09:32;;;;;;;16.27;10.35;;;16.80;93.30;;;;;;5036090;28;20033;-71
2021/05/10 05:11:57;;;;;;;13.52;10.10;;;16.90;93.20;;;;;;5053965;28;20041;-69
2021/05/10 05:14:24;;;;;;;13.02;10.13;;;16.90;93.30;;;;;;5053479;28;20044;-70
2021/05/10 05:16:49;;;;;;;18.08;11.13;;;16.90;93.30;;;;;;5053788;28;20048;-71
2021/05/10 05:19:16;;;;;;;12.02;10.00;;;16.90;93.40;;;;;;5054329;28;20043;-70
2021/05/10 05:21:41;;;;;;;10.93;9.20;;;16.90;93.40;;;;;;5053756;28;20390;-70
2021/05/10 05:24:07;;;;;;;11.32;8.63;;;17.00;93.30;;;;;;5054045;28;20044;-69
2021/05/10 05:26:33;;;;;;;9.07;7.22;;;17.30;92.80;;;;;;5053767;28;20362;-69
2021/05/10 05:28:59;;;;;;;7.60;6.43;;;17.30;92.20;;;;;;5053601;28;20045;-69
2021/05/10 05:31:25;;;;;;;6.97;6.28;;;17.40;92.20;;;;;;5053543;28;20115;-70
2021/05/10 05:33:51;;;;;;;9.52;6.05;;;17.40;91.80;;;;;;5054012;28;20399;-70
2021/05/10 05:36:16;;;;;;;8.05;6.50;;;17.70;91.60;;;;;;5052943;28;20041;-70
2021/05/10 05:38:43;;;;;;;6.45;5.53;;;18.00;91.20;;;;;;5053679;28;20079;-70
2021/05/10 05:41:12;;;;;;;8.60;5.25;;;18.20;90.70;;;;;;5053371;28;20108;-70
2021/05/10 05:43:38;;;;;;;5.53;3.97;;;18.30;90.40;;;;;;5053506;28;20041;-70
2021/05/10 05:46:19;;;;;;;5.30;3.50;;;18.50;90.10;;;;;;5035594;28;20036;-70
2021/05/10 05:48:45;;;;;;;5.30;3.25;;;18.60;89.00;;;;;;5053753;28;20500;-70
2021/05/10 05:51:11;;;;;;;4.20;3.22;;;18.80;88.50;;;;;;5053379;28;20072;-70
2021/05/10 05:53:38;;;;;;;6.07;3.20;;;19.10;88.30;;;;;;5053152;28;20072;-70
2021/05/10 05:56:04;;;;;;;7.35;3.92;;;19.50;87.80;;;;;;5053316;28;20036;-70
2021/05/10 05:58:30;;;;;;;4.60;2.92;;;19.80;86.60;;;;;;5053123;28;20041;-70
2021/05/10 06:00:57;;;;;;;8.57;3.00;;;20.10;85.80;;;;;;5053771;28;20037;-70
2021/05/10 06:03:23;;;;;;;5.53;2.80;;;20.50;84.70;;;;;;5053135;28;20033;-70
2021/05/10 06:05:49;;;;;;;6.50;2.50;;;20.70;84.00;;;;;;5052786;28;20116;-70
2021/05/10 06:08:15;;;;;;;4.95;2.38;;;20.90;83.50;;;;;;5052869;28;20060;-70
2021/05/10 06:10:41;;;;;;;8.98;3.17;;;20.90;82.10;;;;;;5052986;28;20033;-70
2021/05/10 06:13:09;;;;;;;5.18;2.75;;;20.80;82.60;;;;;;5052936;28;20063;-70
2021/05/10 06:15:34;;;;;;;4.57;2.55;;;20.80;82.90;;;;;;5052621;28;20488;-70
2021/05/10 06:18:00;;;;;;;4.10;2.33;;;20.60;82.00;;;;;;5053018;28;20033;-70
2021/05/10 06:20:27;;;;;;;5.80;2.30;;;20.40;82.50;;;;;;5053868;28;20041;-70
2021/05/10 06:22:54;;;;;;;3.60;1.90;;;20.30;82.70;;;;;;5057124;28;20037;-70
2021/05/10 06:25:20;;;;;;;3.55;2.20;;;20.20;81.70;;;;;;5056587;28;20409;-70
2021/05/10 06:27:46;;;;;;;3.67;2.20;;;20.10;81.90;;;;;;5056914;28;20127;-70
2021/05/10 06:30:13;;;;;;;4.75;1.92;;;20.20;82.00;;;;;;5056972;28;20082;-70
2021/05/10 06:32:40;;;;;;;3.58;1.95;;;20.20;82.70;;;;;;5057322;28;20036;-70
2021/05/10 06:35:06;;;;;;;2.85;2.08;;;20.20;81.10;;;;;;5056737;28;20072;-70
2021/05/10 06:37:33;;;;;;;4.32;1.75;;;20.20;80.00;;;;;;5056639;28;20045;-70
2021/05/10 06:39:59;;;;;;;4.55;1.40;;;20.10;79.60;;;;;;5057020;28;20389;-70
2021/05/10 06:42:26;;;;;;;2.65;1.17;;;20.10;77.70;;;;;;5056776;28;20037;-70
2021/05/10 06:44:51;;;;;;;2.63;1.40;;;20.10;77.70;;;;;;5056373;28;20469;-70
2021/05/10 06:47:17;;;;;;;4.20;1.27;;;20.00;77.30;;;;;;5056519;28;20069;-70
2021/05/10 06:49:43;;;;;;;6.78;1.63;;;19.90;77.00;;;;;;5056409;28;20040;-70
2021/05/10 06:52:09;;;;;;;3.17;1.50;;;19.90;77.70;;;;;;5057020;28;20095;-70
2021/05/10 06:54:34;;;;;;;5.00;1.40;;;19.90;77.60;;;;;;5056654;28;20052;-70
2021/05/10 06:57:01;;;;;;;5.88;1.92;;;19.90;76.90;;;;;;5056318;28;20044;-70
2021/05/10 06:59:26;;;;;;;2.47;1.45;;;19.90;78.40;;;;;;5056500;28;20119;-70
2021/05/10 07:01:53;;;;;;;6.82;1.73;;;19.90;79.10;;;;;;5056416;28;20451;-70
2021/05/10 07:04:18;;;;;;;4.45;1.50;;;19.90;78.80;;;;;;5056305;28;20119;-70
2021/05/10 07:06:44;;;;;;;3.30;1.48;;;20.00;77.80;;;;;;5056126;28;20036;-70
2021/05/10 07:09:11;;;;;;;2.85;1.33;;;20.00;78.30;;;;;;5056161;28;20037;-70
2021/05/10 07:11:36;;;;;;;6.35;1.42;;;20.00;77.50;;;;;;5056825;28;20087;-70
2021/05/10 07:14:04;;;;;;;4.05;1.90;;;20.00;78.00;;;;;;5056313;28;20048;-70
2021/05/10 07:16:29;;;;;;;7.95;1.33;;;20.10;77.70;;;;;;5038019;28;20086;-70
2021/05/10 07:18:55;;;;;;;4.22;1.30;;;20.20;78.20;;;;;;5056426;28;20037;-70
2021/05/10 07:21:26;;;;;;;4.32;1.50;;;20.20;78.80;;;;;;5056468;28;20093;-70
2021/05/10 07:23:52;;;;;;;3.55;1.30;;;20.30;78.90;;;;;;5056219;28;20493;-70
2021/05/10 07:26:18;;;;;;;4.32;1.65;;;20.50;76.70;;;;;;5055748;28;20037;-70
2021/05/10 07:28:44;;;;;;;3.53;1.45;;;20.90;76.30;;;;;;5056019;28;20444;-70
2021/05/10 07:31:11;;;;;;;4.18;1.10;;;21.20;75.80;;;;;;5055449;28;20380;-70
2021/05/10 07:33:36;;;;;;;3.83;1.65;;;21.30;75.80;;;;;;5055725;28;20037;-70
2021/05/10 07:36:03;;;;;;;5.95;1.50;;;21.10;74.80;;;;;;5055751;28;20043;-70
2021/05/10 07:38:29;;;;;;;4.82;1.35;;;20.80;73.70;;;;;;5056311;28;20048;-70
2021/05/10 07:40:54;;;;;;;3.28;1.50;;;20.80;75.10;;;;;;5056375;28;20040;-70
2021/05/10 07:43:20;;;;;;;4.97;1.20;;;20.70;76.20;;;;;;5055795;28;20481;-70
2021/05/10 07:45:46;;;;;;;1.95;1.05;;;20.50;76.10;;;;;;5055207;28;20506;-70
2021/05/10 07:48:14;;;;;;;5.20;1.17;;;20.50;75.50;;;;;;5055860;28;20163;-70
2021/05/10 07:50:40;;;;;;;4.45;1.60;;;20.40;76.20;;;;;;5055359;28;20136;-70
2021/05/10 07:53:06;;;;;;;3.75;2.00;;;20.30;77.90;;;;;;5055356;28;20051;-70
2021/05/10 07:55:38;;;;;;;3.28;1.35;;;20.10;79.90;;;;;;5055025;28;20045;-70
2021/05/10 07:58:05;;;;;;;3.08;1.55;;;20.20;80.00;;;;;;5055333;28;20048;-69
2021/05/10 08:00:36;;;;;;;3.15;0.88;;;20.60;78.90;;;;;;5055431;28;20543;-69
2021/05/10 08:03:08;;;;;;;2.28;0.50;;;20.60;76.90;;;;;;5055813;28;20446;-69
2021/05/10 08:05:35;;;;;;;2.28;0.60;;;20.80;76.20;;;;;;5055266;28;20481;-70
2021/05/10 08:08:01;;;;;;;0.93;0.32;;;20.80;74.00;;;;;;5055062;28;20079;-69
2021/05/10 08:10:26;;;;;;;1.02;0.20;;;20.40;75.90;;;;;;5037391;28;20060;-70
2021/05/10 08:12:52;;;;;;;2.53;0.30;;;20.10;76.10;;;;;;5055232;28;20037;-70
2021/05/10 08:15:18;;;;;;;2.05;0.32;;;19.80;77.10;;;;;;5054506;28;20032;-70
2021/05/10 08:17:44;;;;;;;1.35;0.43;;;19.50;76.10;;;;;;5055315;28;20041;-69
2021/05/10 08:20:10;;;;;;;0.38;0.35;;;19.30;78.00;;;;;;5055535;28;20434;-70
2021/05/10 08:22:35;;;;;;;0.88;0.30;;;19.10;79.30;;;;;;5054667;28;20051;-69
2021/05/10 08:25:03;;;;;;;0.75;0.30;;;19.00;81.10;;;;;;5054520;28;20094;-69
2021/05/10 08:27:29;;;;;;;1.67;0.25;;;18.80;80.20;;;;;;5054712;28;20041;-70
2021/05/10 08:29:54;;;;;;;0.80;0.50;;;18.80;80.50;;;;;;5055241;28;20037;-69
2021/05/10 08:32:20;;;;;;;1.45;0.50;;;18.80;79.90;;;;;;5054645;28;20112;-69
2021/05/10 08:34:46;;;;;;;1.30;0.40;;;18.70;80.90;;;;;;5054242;28;20097;-70
2021/05/10 08:37:13;;;;;;;0.88;0.38;;;18.60;80.70;;;;;;5054697;28;20461;-70
2021/05/10 08:39:38;;;;;;;1.50;0.50;;;18.70;80.60;;;;;;5054486;28;20064;-70
2021/05/10 08:42:04;;;;;;;0.95;0.30;;;18.70;81.40;;;;;;5054593;28;20065;-69
2021/05/10 08:44:30;;;;;;;1.90;0.65;;;18.70;81.90;;;;;;5053176;28;20148;-70
2021/05/10 08:46:58;;;;;;;1.25;0.43;;;18.80;81.70;;;;;;5054967;28;20064;-70
2021/05/10 08:49:23;;;;;;;0.90;0.50;;;18.80;82.20;;;;;;5054673;28;20059;-70
2021/05/10 08:51:49;;;;;;;0.50;0.40;;;18.90;81.80;;;;;;5054257;28;20473;-70
2021/05/10 08:54:25;;;;;;;1.33;0.40;;;18.90;82.80;;;;;;5020065;28;20055;-70
2021/05/10 08:56:51;;;;;;;1.10;0.40;;;19.00;83.30;;;;;;5054160;28;20040;-70
2021/05/10 08:59:24;;;;;;;2.83;0.73;;;19.10;82.90;;;;;;5054474;28;20040;-69
2021/05/10 09:01:51;;;;;;;0.75;0.55;;;19.20;83.20;;;;;;5054450;28;20466;-70
2021/05/10 09:04:27;;;;;;;1.25;0.50;;;19.20;81.60;;;;;;5054040;28;20048;-70
2021/05/10 09:07:10;;;;;;;3.22;0.50;;;19.20;81.50;;;;;;5053958;28;20033;-70
2021/05/10 09:09:59;;;;;;;1.38;0.60;;;19.20;81.80;;;;;;5053936;28;20032;-69
2021/05/10 09:12:42;;;;;;;3.80;0.60;;;19.10;80.70;;;;;;5054415;28;20040;-70
2021/05/10 09:15:31;;;;;;;1.83;0.60;;;19.10;81.70;;;;;;5053452;28;20118;-70
2021/05/10 09:18:07;;;;;;;1.25;0.60;;;19.40;83.20;;;;;;5054234;28;20048;-70
2021/05/10 09:20:39;;;;;;;1.05;0.60;;;19.40;82.50;;;;;;5054351;28;20048;-69
2021/05/10 09:23:13;;;;;;;2.95;0.52;;;19.30;83.00;;;;;;5053685;28;20469;-69
2021/05/10 09:25:41;;;;;;;1.55;0.75;;;19.30;83.00;;;;;;5053603;28;20098;-69
2021/05/10 09:28:25;;;;;;;1.33;0.60;;;19.10;83.10;;;;;;5053556;28;20069;-69
2021/05/10 09:30:51;;;;;;;1.20;0.80;;;18.90;84.20;;;;;;5054159;28;20041;-69
2021/05/10 09:33:23;;;;;;;1.30;0.60;;;18.80;84.30;;;;;;5053330;28;20112;-69
2021/05/10 09:35:50;;;;;;;1.17;0.73;;;18.70;85.10;;;;;;5053195;28;20073;-70
2021/05/10 09:38:20;;;;;;;2.83;0.88;;;18.60;85.30;;;;;;5053425;28;20093;-69
2021/05/10 09:40:55;;;;;;;2.20;0.77;;;18.70;85.50;;;;;;5053559;28;20040;-69
2021/05/10 09:43:28;;;;;;;1.17;0.90;;;19.00;84.00;;;;;;5053968;28;20033;-69
2021/05/10 09:45:56;;;;;;;10.55;1.58;;;19.10;84.50;;;;;;5053309;28;20428;-70
2021/05/10 09:48:24;;;;;;;3.10;1.20;;;19.30;83.50;;;;;;5053557;28;20374;-69
2021/05/10 09:50:52;;;;;;;1.30;0.88;;;19.20;83.80;;;;;;5053153;28;20386;-69
2021/05/10 09:53:26;;;;;;;2.17;0.90;;;19.20;84.20;;;;;;5053821;28;20037;-70
2021/05/10 09:55:53;;;;;;;2.10;1.10;;;19.10;84.30;;;;;;5052855;28;20116;-69
2021/05/10 09:58:21;;;;;;;2.70;1.40;;;19.00;84.00;;;;;;5053212;28;20037;-69
2021/05/10 10:00:57;;;;;;;1.90;1.38;;;18.90;84.60;;;;;;5053658;28;20124;-69
2021/05/10 10:03:36;;;;;;;2.40;1.20;;;18.90;85.50;;;;;;5053488;28;20033;-69
2021/05/10 10:06:08;;;;;;;3.00;1.30;;;18.80;84.80;;;;;;5053065;28;20056;-70
2021/05/10 10:08:35;;;;;;;3.03;1.63;;;18.90;83.80;;;;;;5053172;28;20033;-70
2021/05/10 10:11:03;;;;;;;2.75;1.50;;;18.90;83.90;;;;;;5053259;28;20040;-70
2021/05/10 10:13:28;;;;;;;5.07;1.40;;;18.90;82.40;;;;;;5052982;28;20489;-70
2021/05/10 10:15:58;;;;;;;3.30;1.30;;;18.80;83.40;;;;;;5052827;28;20047;-70
2021/05/10 10:18:25;;;;;;;1.00;0.40;;;18.60;84.00;;;;;;5053112;28;20568;-70
2021/05/10 10:20:53;;;;;;;1.10;0.70;;;18.20;79.60;;;;;;5052952;28;20493;-69
2021/05/10 10:23:22;;;;;;;2.33;0.50;;;17.70;83.10;;;;;;5052145;28;20504;-69
2021/05/10 10:25:49;;;;;;;1.48;0.63;;;17.10;85.90;;;;;;5052358;28;20481;-69
2021/05/10 10:28:17;;;;;;;1.50;0.52;;;16.80;88.60;;;;;;5052946;28;20033;-70
2021/05/10 10:30:50;;;;;;;1.45;0.70;;;16.30;90.10;;;;;;5053315;28;20037;-70
2021/05/10 10:33:24;;;;;;;1.40;0.60;;;16.00;90.40;;;;;;5052991;28;20040;-69
2021/05/10 10:35:50;;;;;;;1.00;0.77;;;15.80;91.00;;;;;;5052701;28;20490;-70
2021/05/10 10:38:28;;;;;;;1.77;0.90;;;15.70;91.40;;;;;;5052859;28;20045;-70
2021/05/10 10:41:20;;;;;;;2.60;1.02;;;15.60;91.80;;;;;;5052909;28;20037;-70
2021/05/10 10:43:48;;;;;;;3.10;0.98;;;15.40;92.30;;;;;;5052903;28;20098;-70
2021/05/10 10:46:17;;;;;;;2.08;0.90;;;15.40;92.10;;;;;;5052358;28;20489;-70
2021/05/10 10:48:44;;;;;;;1.48;1.00;;;15.30;92.50;;;;;;5052689;28;20461;-70
2021/05/10 10:51:12;;;;;;;1.85;1.00;;;15.40;92.50;;;;;;5053186;28;20377;-70
2021/05/10 10:53:54;;;;;;;1.45;0.90;;;15.40;92.60;;;;;;5052373;28;20036;-70
2021/05/10 10:56:54;;;;;;;1.77;1.20;;;15.60;93.20;;;;;;5052789;28;20060;-70
2021/05/10 10:59:28;;;;;;;2.28;1.00;;;15.70;93.00;;;;;;5053196;28;20044;-70
2021/05/10 11:01:53;;;;;;;;;;;15.70;92.90;;;;;;5053398;28;20033;-70
2021/05/10 11:04:27;;;;;;;4.60;1.00;;;15.70;92.70;;;;;;5052964;28;19970;-70
2021/05/10 11:06:54;;;;;;;1.73;0.98;;;15.70;92.80;;;;;;5054718;28;20528;-70
2021/05/10 11:09:44;;;;;;;2.97;1.23;;;15.80;92.90;;;;;;5056136;28;20033;-70
2021/05/10 11:13:02;;;;;;;1.75;1.00;;;16.00;93.10;;;;;;5056460;28;20037;-70
2021/05/10 11:15:38;;;;;;;1.05;0.85;;;16.30;92.70;;;;;;5005219;28;20061;-70
2021/05/10 11:18:08;;;;;;;1.92;1.13;;;16.40;92.80;;;;;;5036361;28;20389;-70
2021/05/10 11:20:40;;;;;;;1.40;1.00;;;16.50;92.30;;;;;;5036075;28;20037;-70
2021/05/10 11:23:28;;;;;;;2.70;1.10;;;16.60;92.40;;;;;;5035996;28;20041;-70
2021/05/10 11:26:15;;;;;;;1.75;0.90;;;16.60;92.10;;;;;;5036016;28;20163;-69
2021/05/10 11:28:42;;;;;;;1.52;1.00;;;16.60;91.80;;;;;;5019549;28;20131;-70
2021/05/10 11:31:13;;;;;;;1.70;1.00;;;16.60;91.70;;;;;;5036115;28;20038;-70
2021/05/10 11:33:54;;;;;;;2.03;1.17;;;16.50;91.70;;;;;;5036472;28;20045;-70
2021/05/10 11:36:23;;;;;;;3.25;1.20;;;16.50;92.00;;;;;;5036144;28;20042;-70
2021/05/10 11:39:06;;;;;;;2.47;1.17;;;16.50;92.30;;;;;;5035916;28;20432;-70
2021/05/10 11:41:36;;;;;;;2.92;1.38;;;16.60;92.40;;;;;;5036311;28;20057;-70
2021/05/10 11:44:07;;;;;;;1.83;1.15;;;16.60;91.90;;;;;;5035544;28;20041;-70
2021/05/10 11:46:36;;;;;;;2.70;1.23;;;16.70;91.60;;;;;;5035585;28;20057;-70
2021/05/10 11:49:04;;;;;;;2.97;1.30;;;16.70;91.80;;;;;;5017706;28;20113;-70
2021/05/10 11:51:33;;;;;;;2.85;1.08;;;16.70;91.70;;;;;;5035884;28;20116;-70
2021/05/10 11:54:07;;;;;;;2.17;1.40;;;16.80;91.40;;;;;;5017997;28;20045;-70
2021/05/10 11:56:41;;;;;;;2.20;1.55;;;16.80;91.30;;;;;;5035235;28;20087;-70
2021/05/10 12:02:23;;;;;;;2.97;1.33;;;17.00;90.70;;;;;;5035640;28;20033;-70
2021/05/10 12:04:52;;;;;;;2.72;1.60;;;17.10;91.00;;;;;;5034440;28;20057;-70
2021/05/10 12:07:19;;;;;;;2.78;1.48;;;17.30;90.50;;;;;;5035730;28;20355;-70
2021/05/10 12:10:04;;;;;;;2.53;1.23;;;17.30;90.40;;;;;;5017494;28;20048;-69
2021/05/10 12:12:45;;;;;;;2.30;1.13;;;17.20;90.80;;;;;;5035260;28;20113;-70
2021/05/10 12:15:23;;;;;;;2.70;1.10;;;17.20;91.00;;;;;;5034800;28;20042;-70
2021/05/10 12:17:54;;;;;;;6.85;1.63;;;17.20;90.80;;;;;;5035011;28;20144;-70
2021/05/10 12:20:23;;;;;;;2.60;1.60;;;17.30;91.00;;;;;;5035428;28;20117;-70
2021/05/10 12:22:51;;;;;;;2.72;1.50;;;17.40;91.20;;;;;;5034879;28;20194;-70
2021/05/10 12:25:19;;;;;;;3.72;1.48;;;17.50;90.10;;;;;;5034677;28;20065;-70
2021/05/10 12:28:04;;;;;;;2.20;1.40;;;17.50;90.20;;;;;;5034653;28;20474;-70
2021/05/10 12:30:51;;;;;;;3.35;1.50;;;17.50;90.00;;;;;;5034597;28;20041;-70
2021/05/10 12:33:22;;;;;;;2.30;1.02;;;17.50;90.00;;;;;;5035110;28;20038;-70
2021/05/10 12:36:04;;;;;;;2.30;1.58;;;17.40;88.20;;;;;;5034288;28;20539;-70
2021/05/10 12:38:42;;;;;;;2.65;1.15;;;17.30;87.90;;;;;;5034820;28;20049;-70
2021/05/10 12:41:18;;;;;;;3.67;1.13;;;17.10;87.90;;;;;;5034560;28;20038;-69
2021/05/10 12:43:48;;;;;;;3.53;1.40;;;16.90;87.90;;;;;;5035112;28;20060;-70
2021/05/10 12:46:14;;;;;;;3.17;1.25;;;16.80;88.50;;;;;;5034578;28;20112;-70
2021/05/10 12:48:43;;;;;;;2.92;1.20;;;16.70;88.90;;;;;;5034851;28;20140;-70
2021/05/10 12:51:15;;;;;;;2.03;1.30;;;16.60;89.30;;;;;;5035005;28;20513;-70
2021/05/10 12:53:53;;;;;;;2.90;1.60;;;16.50;90.30;;;;;;5046585;28;20104;-70
2021/05/10 12:56:19;;;;;;;6.75;2.20;;;16.50;90.50;;;;;;5054028;28;20040;-70
2021/05/10 12:58:49;;;;;;;2.97;1.80;;;16.40;91.30;;;;;;5054268;28;20033;-69
2021/05/10 13:01:16;;;;;;;4.85;2.22;;;16.30;91.00;;;;;;5054222;28;20037;-69
2021/05/10 13:03:44;;;;;;;3.33;1.98;;;16.20;91.00;;;;;;5036160;28;20505;-70